KLAA/LAA METAR and TAF weather

Enter ICAO airport designator
Station Type Date Time Source
KLAA METAR 2022/06/27 07:53 UTC NOAA

KLAA 270753Z AUTO 15004KT 10SM OVC050 16/10 A3038 RMK AO2 SLP255 T01610100


Station Type Date Time Source
KLAA Decoded METAR 2022/06/27 07:53 UTC NOAA

LAMAR MUNICIPAL AIRPORT, CO, United States (KLAA) 38-04N 102-41W 1119M
Jun 27, 2022 - 03:53 AM EDT / 2022.06.27 0753 UTC
Wind: from the SSE (150 degrees) at 5 MPH (4 KT):0
Visibility: 10 mile(s):0
Sky conditions: overcast
Temperature: 61.0 F (16.1 C)
Dew Point: 50.0 F (10.0 C)
Relative Humidity: 67%
Pressure (altimeter): 30.38 in. Hg (1028 hPa)
ob: KLAA 270753Z AUTO 15004KT 10SM OVC050 16/10 A3038 RMK AO2 SLP255 T01610100
cycle: 8

Station Type Date Time Source
KLAA TAF UTC NOAA

Error!

Example: see airport list